sensor_id;sensor_type;location;lat;lon;timestamp;P1;durP1;ratioP1;P2;durP2;ratioP2
44704;SDS011;30431;48.520;9.046;2023-02-05T00:00:15;12.25;;;4.75;;
44704;SDS011;30431;48.520;9.046;2023-02-05T00:02:43;12.00;;;4.68;;
44704;SDS011;30431;48.520;9.046;2023-02-05T00:05:10;13.02;;;4.85;;
44704;SDS011;30431;48.520;9.046;2023-02-05T00:07:37;15.02;;;5.35;;
44704;SDS011;30431;48.520;9.046;2023-02-05T00:10:06;13.75;;;5.45;;
44704;SDS011;30431;48.520;9.046;2023-02-05T00:12:33;14.68;;;5.80;;
44704;SDS011;30431;48.520;9.046;2023-02-05T00:15:00;14.50;;;5.90;;
44704;SDS011;30431;48.520;9.046;2023-02-05T00:17:27;15.57;;;5.82;;
44704;SDS011;30431;48.520;9.046;2023-02-05T00:19:54;17.88;;;6.43;;
44704;SDS011;30431;48.520;9.046;2023-02-05T00:22:21;12.70;;;6.20;;
44704;SDS011;30431;48.520;9.046;2023-02-05T00:24:48;18.67;;;6.65;;
44704;SDS011;30431;48.520;9.046;2023-02-05T00:27:17;23.42;;;6.65;;
44704;SDS011;30431;48.520;9.046;2023-02-05T00:29:47;16.02;;;7.55;;
44704;SDS011;30431;48.520;9.046;2023-02-05T00:32:13;22.25;;;8.70;;
44704;SDS011;30431;48.520;9.046;2023-02-05T00:34:40;23.85;;;9.90;;
44704;SDS011;30431;48.520;9.046;2023-02-05T00:37:07;25.13;;;9.50;;
44704;SDS011;30431;48.520;9.046;2023-02-05T00:39:39;28.70;;;11.88;;
44704;SDS011;30431;48.520;9.046;2023-02-05T00:42:06;23.55;;;11.40;;
44704;SDS011;30431;48.520;9.046;2023-02-05T00:44:33;24.40;;;10.35;;
44704;SDS011;30431;48.520;9.046;2023-02-05T00:47:02;22.73;;;9.50;;
44704;SDS011;30431;48.520;9.046;2023-02-05T00:49:32;23.15;;;9.90;;
44704;SDS011;30431;48.520;9.046;2023-02-05T00:51:59;22.85;;;8.50;;
44704;SDS011;30431;48.520;9.046;2023-02-05T00:54:26;19.05;;;8.98;;
44704;SDS011;30431;48.520;9.046;2023-02-05T00:56:57;18.92;;;8.98;;
44704;SDS011;30431;48.520;9.046;2023-02-05T00:59:24;25.83;;;8.82;;
44704;SDS011;30431;48.520;9.046;2023-02-05T01:01:51;19.92;;;8.38;;
44704;SDS011;30431;48.520;9.046;2023-02-05T01:04:20;23.70;;;9.50;;
44704;SDS011;30431;48.520;9.046;2023-02-05T01:06:49;17.23;;;8.90;;
44704;SDS011;30431;48.520;9.046;2023-02-05T01:09:16;21.70;;;10.20;;
44704;SDS011;30431;48.520;9.046;2023-02-05T01:11:45;27.38;;;11.30;;
44704;SDS011;30431;48.520;9.046;2023-02-05T01:14:12;28.17;;;11.68;;
44704;SDS011;30431;48.520;9.046;2023-02-05T01:16:41;25.90;;;12.48;;
44704;SDS011;30431;48.520;9.046;2023-02-05T01:19:15;20.67;;;9.52;;
44704;SDS011;30431;48.520;9.046;2023-02-05T01:21:42;21.35;;;9.25;;
44704;SDS011;30431;48.520;9.046;2023-02-05T01:24:09;21.90;;;8.80;;
44704;SDS011;30431;48.520;9.046;2023-02-05T01:26:37;20.55;;;8.18;;
44704;SDS011;30431;48.520;9.046;2023-02-05T01:29:06;22.20;;;8.93;;
44704;SDS011;30431;48.520;9.046;2023-02-05T01:31:33;24.95;;;9.75;;
44704;SDS011;30431;48.520;9.046;2023-02-05T01:36:27;17.73;;;8.60;;
44704;SDS011;30431;48.520;9.046;2023-02-05T01:38:54;18.83;;;8.55;;
44704;SDS011;30431;48.520;9.046;2023-02-05T01:41:21;18.23;;;7.97;;
44704;SDS011;30431;48.520;9.046;2023-02-05T01:44:08;20.80;;;8.40;;
44704;SDS011;30431;48.520;9.046;2023-02-05T01:46:44;19.40;;;8.43;;
44704;SDS011;30431;48.520;9.046;2023-02-05T01:49:21;27.00;;;8.95;;
44704;SDS011;30431;48.520;9.046;2023-02-05T01:51:55;22.83;;;9.10;;
44704;SDS011;30431;48.520;9.046;2023-02-05T01:54:29;21.92;;;9.95;;
44704;SDS011;30431;48.520;9.046;2023-02-05T01:57:00;22.10;;;10.82;;
44704;SDS011;30431;48.520;9.046;2023-02-05T01:59:31;26.08;;;9.57;;
44704;SDS011;30431;48.520;9.046;2023-02-05T02:02:02;24.17;;;9.10;;
44704;SDS011;30431;48.520;9.046;2023-02-05T02:07:08;21.05;;;10.00;;
44704;SDS011;30431;48.520;9.046;2023-02-05T02:09:46;19.77;;;9.30;;
44704;SDS011;30431;48.520;9.046;2023-02-05T02:12:18;23.63;;;9.23;;
44704;SDS011;30431;48.520;9.046;2023-02-05T02:14:53;23.67;;;9.40;;
44704;SDS011;30431;48.520;9.046;2023-02-05T02:17:24;18.33;;;8.65;;
44704;SDS011;30431;48.520;9.046;2023-02-05T02:19:58;17.70;;;8.52;;
44704;SDS011;30431;48.520;9.046;2023-02-05T02:25:46;22.13;;;8.82;;
44704;SDS011;30431;48.520;9.046;2023-02-05T02:28:25;22.90;;;9.43;;
44704;SDS011;30431;48.520;9.046;2023-02-05T02:33:42;19.40;;;8.30;;
44704;SDS011;30431;48.520;9.046;2023-02-05T02:36:15;17.30;;;7.80;;
44704;SDS011;30431;48.520;9.046;2023-02-05T02:38:55;16.67;;;7.35;;
44704;SDS011;30431;48.520;9.046;2023-02-05T02:41:51;14.63;;;7.28;;
44704;SDS011;30431;48.520;9.046;2023-02-05T02:44:33;15.88;;;7.72;;
44704;SDS011;30431;48.520;9.046;2023-02-05T02:47:07;22.27;;;7.80;;
44704;SDS011;30431;48.520;9.046;2023-02-05T02:49:44;15.63;;;7.35;;
44704;SDS011;30431;48.520;9.046;2023-02-05T02:52:27;19.52;;;7.38;;
44704;SDS011;30431;48.520;9.046;2023-02-05T02:55:01;14.18;;;6.85;;
44704;SDS011;30431;48.520;9.046;2023-02-05T02:57:38;15.50;;;6.83;;
44704;SDS011;30431;48.520;9.046;2023-02-05T03:00:15;17.20;;;7.32;;
44704;SDS011;30431;48.520;9.046;2023-02-05T03:02:45;15.95;;;7.10;;
44704;SDS011;30431;48.520;9.046;2023-02-05T03:05:19;16.63;;;7.22;;
44704;SDS011;30431;48.520;9.046;2023-02-05T03:07:53;15.10;;;7.45;;
44704;SDS011;30431;48.520;9.046;2023-02-05T03:13:10;18.60;;;7.93;;
44704;SDS011;30431;48.520;9.046;2023-02-05T03:15:42;14.70;;;6.57;;
44704;SDS011;30431;48.520;9.046;2023-02-05T03:18:11;22.48;;;7.25;;
44704;SDS011;30431;48.520;9.046;2023-02-05T03:20:45;14.13;;;6.78;;
44704;SDS011;30431;48.520;9.046;2023-02-05T03:23:20;17.95;;;7.57;;
44704;SDS011;30431;48.520;9.046;2023-02-05T03:28:19;18.20;;;8.02;;
44704;SDS011;30431;48.520;9.046;2023-02-05T03:39:43;17.17;;;7.63;;
44704;SDS011;30431;48.520;9.046;2023-02-05T03:42:16;16.25;;;7.40;;
44704;SDS011;30431;48.520;9.046;2023-02-05T03:50:38;13.60;;;7.50;;
44704;SDS011;30431;48.520;9.046;2023-02-05T03:53:21;13.90;;;6.50;;
44704;SDS011;30431;48.520;9.046;2023-02-05T03:55:50;19.15;;;7.13;;
44704;SDS011;30431;48.520;9.046;2023-02-05T03:58:27;16.25;;;6.93;;
44704;SDS011;30431;48.520;9.046;2023-02-05T04:01:06;15.48;;;6.80;;
44704;SDS011;30431;48.520;9.046;2023-02-05T04:03:37;13.27;;;7.30;;
44704;SDS011;30431;48.520;9.046;2023-02-05T04:06:05;13.25;;;7.63;;
44704;SDS011;30431;48.520;9.046;2023-02-05T04:08:33;16.52;;;7.05;;
44704;SDS011;30431;48.520;9.046;2023-02-05T04:11:03;14.82;;;7.60;;
44704;SDS011;30431;48.520;9.046;2023-02-05T04:13:31;14.93;;;7.82;;
44704;SDS011;30431;48.520;9.046;2023-02-05T04:15:59;16.25;;;7.95;;
44704;SDS011;30431;48.520;9.046;2023-02-05T04:18:26;19.92;;;7.47;;
44704;SDS011;30431;48.520;9.046;2023-02-05T04:20:53;18.23;;;8.32;;
44704;SDS011;30431;48.520;9.046;2023-02-05T04:23:23;24.33;;;8.15;;
44704;SDS011;30431;48.520;9.046;2023-02-05T04:25:51;15.60;;;8.02;;
44704;SDS011;30431;48.520;9.046;2023-02-05T04:28:23;20.73;;;8.10;;
44704;SDS011;30431;48.520;9.046;2023-02-05T04:30:50;16.70;;;8.13;;
44704;SDS011;30431;48.520;9.046;2023-02-05T04:33:18;18.63;;;9.13;;
44704;SDS011;30431;48.520;9.046;2023-02-05T04:35:45;16.23;;;8.57;;
44704;SDS011;30431;48.520;9.046;2023-02-05T04:38:13;20.40;;;8.50;;
44704;SDS011;30431;48.520;9.046;2023-02-05T04:40:39;20.58;;;8.88;;
44704;SDS011;30431;48.520;9.046;2023-02-05T04:43:06;16.17;;;8.20;;
44704;SDS011;30431;48.520;9.046;2023-02-05T04:48:03;16.30;;;8.13;;
44704;SDS011;30431;48.520;9.046;2023-02-05T04:50:34;15.20;;;7.38;;
44704;SDS011;30431;48.520;9.046;2023-02-05T04:53:03;17.88;;;8.07;;
44704;SDS011;30431;48.520;9.046;2023-02-05T04:55:31;14.55;;;6.88;;
44704;SDS011;30431;48.520;9.046;2023-02-05T04:57:58;16.50;;;7.13;;
44704;SDS011;30431;48.520;9.046;2023-02-05T05:00:28;18.33;;;8.00;;
44704;SDS011;30431;48.520;9.046;2023-02-05T05:05:30;16.15;;;7.47;;
44704;SDS011;30431;48.520;9.046;2023-02-05T05:08:00;17.77;;;8.55;;
44704;SDS011;30431;48.520;9.046;2023-02-05T05:10:27;22.10;;;8.77;;
44704;SDS011;30431;48.520;9.046;2023-02-05T05:12:54;19.25;;;8.73;;
44704;SDS011;30431;48.520;9.046;2023-02-05T05:15:21;19.25;;;8.90;;
44704;SDS011;30431;48.520;9.046;2023-02-05T05:17:54;15.23;;;9.07;;
44704;SDS011;30431;48.520;9.046;2023-02-05T05:20:23;23.25;;;9.10;;
44704;SDS011;30431;48.520;9.046;2023-02-05T05:22:52;15.23;;;7.82;;
44704;SDS011;30431;48.520;9.046;2023-02-05T05:25:19;19.45;;;9.05;;
44704;SDS011;30431;48.520;9.046;2023-02-05T05:27:51;15.32;;;9.07;;
44704;SDS011;30431;48.520;9.046;2023-02-05T05:30:20;20.15;;;9.65;;
44704;SDS011;30431;48.520;9.046;2023-02-05T05:32:54;17.58;;;8.82;;
44704;SDS011;30431;48.520;9.046;2023-02-05T05:35:24;20.25;;;8.50;;
44704;SDS011;30431;48.520;9.046;2023-02-05T05:37:51;19.48;;;8.45;;
44704;SDS011;30431;48.520;9.046;2023-02-05T05:40:20;20.98;;;8.73;;
44704;SDS011;30431;48.520;9.046;2023-02-05T05:43:13;22.60;;;9.57;;
44704;SDS011;30431;48.520;9.046;2023-02-05T05:46:00;18.30;;;8.38;;
44704;SDS011;30431;48.520;9.046;2023-02-05T05:48:27;19.35;;;8.48;;
44704;SDS011;30431;48.520;9.046;2023-02-05T05:50:56;17.70;;;8.38;;
44704;SDS011;30431;48.520;9.046;2023-02-05T05:53:28;18.52;;;8.43;;
44704;SDS011;30431;48.520;9.046;2023-02-05T05:55:58;16.17;;;8.25;;
44704;SDS011;30431;48.520;9.046;2023-02-05T05:58:25;15.45;;;8.40;;
44704;SDS011;30431;48.520;9.046;2023-02-05T06:00:52;19.10;;;8.57;;
44704;SDS011;30431;48.520;9.046;2023-02-05T06:03:24;17.65;;;7.97;;
44704;SDS011;30431;48.520;9.046;2023-02-05T06:05:52;20.75;;;9.05;;
44704;SDS011;30431;48.520;9.046;2023-02-05T06:10:46;19.25;;;8.45;;
44704;SDS011;30431;48.520;9.046;2023-02-05T06:13:16;20.45;;;9.10;;
44704;SDS011;30431;48.520;9.046;2023-02-05T06:15:45;26.00;;;9.68;;
44704;SDS011;30431;48.520;9.046;2023-02-05T06:18:17;19.08;;;8.98;;
44704;SDS011;30431;48.520;9.046;2023-02-05T06:20:44;15.18;;;8.15;;
44704;SDS011;30431;48.520;9.046;2023-02-05T06:23:14;18.02;;;9.02;;
44704;SDS011;30431;48.520;9.046;2023-02-05T06:25:43;21.08;;;9.63;;
44704;SDS011;30431;48.520;9.046;2023-02-05T06:30:37;18.63;;;9.50;;
44704;SDS011;30431;48.520;9.046;2023-02-05T06:33:04;21.20;;;8.82;;
44704;SDS011;30431;48.520;9.046;2023-02-05T06:35:31;16.75;;;8.68;;
44704;SDS011;30431;48.520;9.046;2023-02-05T06:37:59;16.83;;;9.10;;
44704;SDS011;30431;48.520;9.046;2023-02-05T06:40:26;18.48;;;9.05;;
44704;SDS011;30431;48.520;9.046;2023-02-05T06:42:54;19.83;;;9.52;;
44704;SDS011;30431;48.520;9.046;2023-02-05T06:45:21;19.55;;;9.73;;
44704;SDS011;30431;48.520;9.046;2023-02-05T06:47:50;20.55;;;10.32;;
44704;SDS011;30431;48.520;9.046;2023-02-05T06:50:21;16.83;;;8.93;;
44704;SDS011;30431;48.520;9.046;2023-02-05T06:52:54;23.40;;;10.60;;
44704;SDS011;30431;48.520;9.046;2023-02-05T06:55:21;19.30;;;10.73;;
44704;SDS011;30431;48.520;9.046;2023-02-05T06:57:53;26.08;;;11.57;;
44704;SDS011;30431;48.520;9.046;2023-02-05T07:00:20;25.83;;;13.27;;
44704;SDS011;30431;48.520;9.046;2023-02-05T07:02:47;22.27;;;10.77;;
44704;SDS011;30431;48.520;9.046;2023-02-05T07:05:14;21.73;;;11.77;;
44704;SDS011;30431;48.520;9.046;2023-02-05T07:10:11;15.77;;;8.40;;
44704;SDS011;30431;48.520;9.046;2023-02-05T07:12:38;23.15;;;9.48;;
44704;SDS011;30431;48.520;9.046;2023-02-05T07:15:06;19.33;;;8.50;;
44704;SDS011;30431;48.520;9.046;2023-02-05T07:17:33;27.25;;;14.98;;
44704;SDS011;30431;48.520;9.046;2023-02-05T07:20:04;20.98;;;9.73;;
44704;SDS011;30431;48.520;9.046;2023-02-05T07:22:31;21.38;;;10.65;;
44704;SDS011;30431;48.520;9.046;2023-02-05T07:24:58;22.63;;;10.40;;
44704;SDS011;30431;48.520;9.046;2023-02-05T07:27:29;19.85;;;9.68;;
44704;SDS011;30431;48.520;9.046;2023-02-05T07:32:23;22.95;;;9.40;;
44704;SDS011;30431;48.520;9.046;2023-02-05T07:34:52;19.73;;;8.73;;
44704;SDS011;30431;48.520;9.046;2023-02-05T07:37:21;16.95;;;8.48;;
44704;SDS011;30431;48.520;9.046;2023-02-05T07:39:48;31.98;;;18.65;;
44704;SDS011;30431;48.520;9.046;2023-02-05T07:42:17;18.55;;;9.25;;
44704;SDS011;30431;48.520;9.046;2023-02-05T07:44:49;15.98;;;9.07;;
44704;SDS011;30431;48.520;9.046;2023-02-05T07:47:16;18.02;;;9.40;;
44704;SDS011;30431;48.520;9.046;2023-02-05T07:49:45;19.05;;;9.27;;
44704;SDS011;30431;48.520;9.046;2023-02-05T07:52:12;21.40;;;8.73;;
44704;SDS011;30431;48.520;9.046;2023-02-05T07:54:42;17.15;;;8.27;;
44704;SDS011;30431;48.520;9.046;2023-02-05T07:57:09;17.60;;;8.65;;
44704;SDS011;30431;48.520;9.046;2023-02-05T07:59:36;15.48;;;8.57;;
44704;SDS011;30431;48.520;9.046;2023-02-05T08:02:08;14.93;;;7.72;;
44704;SDS011;30431;48.520;9.046;2023-02-05T08:04:36;14.43;;;8.00;;
44704;SDS011;30431;48.520;9.046;2023-02-05T08:07:04;17.98;;;8.93;;
44704;SDS011;30431;48.520;9.046;2023-02-05T08:09:33;17.00;;;8.70;;
44704;SDS011;30431;48.520;9.046;2023-02-05T08:12:01;18.35;;;9.13;;
44704;SDS011;30431;48.520;9.046;2023-02-05T08:14:31;15.13;;;8.75;;
44704;SDS011;30431;48.520;9.046;2023-02-05T08:16:58;20.00;;;9.80;;
44704;SDS011;30431;48.520;9.046;2023-02-05T08:19:25;17.55;;;9.65;;
44704;SDS011;30431;48.520;9.046;2023-02-05T08:21:51;19.55;;;10.43;;
44704;SDS011;30431;48.520;9.046;2023-02-05T08:24:19;21.40;;;9.95;;
44704;SDS011;30431;48.520;9.046;2023-02-05T08:26:45;17.52;;;8.68;;
44704;SDS011;30431;48.520;9.046;2023-02-05T08:29:15;16.25;;;8.95;;
44704;SDS011;30431;48.520;9.046;2023-02-05T08:31:44;15.55;;;8.57;;
44704;SDS011;30431;48.520;9.046;2023-02-05T08:34:13;22.50;;;11.13;;
44704;SDS011;30431;48.520;9.046;2023-02-05T08:36:40;21.25;;;9.40;;
44704;SDS011;30431;48.520;9.046;2023-02-05T08:39:07;23.77;;;12.52;;
44704;SDS011;30431;48.520;9.046;2023-02-05T08:41:35;16.80;;;10.10;;
44704;SDS011;30431;48.520;9.046;2023-02-05T08:44:02;16.60;;;9.13;;
44704;SDS011;30431;48.520;9.046;2023-02-05T08:46:30;16.58;;;8.95;;
44704;SDS011;30431;48.520;9.046;2023-02-05T08:49:14;14.25;;;8.40;;
44704;SDS011;30431;48.520;9.046;2023-02-05T08:51:42;16.70;;;8.68;;
44704;SDS011;30431;48.520;9.046;2023-02-05T08:54:09;17.83;;;8.48;;
44704;SDS011;30431;48.520;9.046;2023-02-05T08:56:39;17.33;;;8.40;;
44704;SDS011;30431;48.520;9.046;2023-02-05T08:59:07;16.08;;;8.45;;
44704;SDS011;30431;48.520;9.046;2023-02-05T09:01:35;16.70;;;7.72;;
44704;SDS011;30431;48.520;9.046;2023-02-05T09:04:03;17.10;;;8.18;;
44704;SDS011;30431;48.520;9.046;2023-02-05T09:06:30;16.70;;;7.32;;
44704;SDS011;30431;48.520;9.046;2023-02-05T09:08:57;20.52;;;8.10;;
44704;SDS011;30431;48.520;9.046;2023-02-05T09:11:25;15.48;;;7.68;;
44704;SDS011;30431;48.520;9.046;2023-02-05T09:13:52;17.60;;;7.88;;
44704;SDS011;30431;48.520;9.046;2023-02-05T09:16:19;15.07;;;7.40;;
44704;SDS011;30431;48.520;9.046;2023-02-05T09:18:46;15.20;;;7.90;;
44704;SDS011;30431;48.520;9.046;2023-02-05T09:21:13;17.63;;;11.52;;
44704;SDS011;30431;48.520;9.046;2023-02-05T09:23:40;17.48;;;8.15;;
44704;SDS011;30431;48.520;9.046;2023-02-05T09:26:12;17.27;;;8.95;;
44704;SDS011;30431;48.520;9.046;2023-02-05T09:28:39;21.30;;;10.52;;
44704;SDS011;30431;48.520;9.046;2023-02-05T09:31:10;12.95;;;7.22;;
44704;SDS011;30431;48.520;9.046;2023-02-05T09:33:41;15.23;;;8.70;;
44704;SDS011;30431;48.520;9.046;2023-02-05T09:36:12;16.58;;;7.75;;
44704;SDS011;30431;48.520;9.046;2023-02-05T09:38:44;14.38;;;7.40;;
44704;SDS011;30431;48.520;9.046;2023-02-05T09:44:09;11.85;;;6.45;;
44704;SDS011;30431;48.520;9.046;2023-02-05T09:52:19;16.88;;;7.97;;
44704;SDS011;30431;48.520;9.046;2023-02-05T09:55:02;19.80;;;8.32;;
44704;SDS011;30431;48.520;9.046;2023-02-05T09:57:39;22.55;;;8.00;;
44704;SDS011;30431;48.520;9.046;2023-02-05T10:05:56;17.02;;;7.63;;
44704;SDS011;30431;48.520;9.046;2023-02-05T10:19:26;19.80;;;8.50;;
44704;SDS011;30431;48.520;9.046;2023-02-05T10:25:11;16.38;;;7.20;;
44704;SDS011;30431;48.520;9.046;2023-02-05T10:36:43;18.75;;;8.02;;
44704;SDS011;30431;48.520;9.046;2023-02-05T10:39:16;19.48;;;7.82;;
44704;SDS011;30431;48.520;9.046;2023-02-05T10:42:04;19.85;;;8.63;;
44704;SDS011;30431;48.520;9.046;2023-02-05T10:44:38;19.35;;;7.97;;
44704;SDS011;30431;48.520;9.046;2023-02-05T10:47:17;18.02;;;9.27;;
44704;SDS011;30431;48.520;9.046;2023-02-05T10:49:54;18.25;;;8.68;;
44704;SDS011;30431;48.520;9.046;2023-02-05T10:52:27;18.40;;;7.65;;
44704;SDS011;30431;48.520;9.046;2023-02-05T10:54:54;14.93;;;7.95;;
44704;SDS011;30431;48.520;9.046;2023-02-05T10:57:27;20.75;;;8.70;;
44704;SDS011;30431;48.520;9.046;2023-02-05T10:59:57;23.52;;;11.95;;
44704;SDS011;30431;48.520;9.046;2023-02-05T11:02:33;16.30;;;8.38;;
44704;SDS011;30431;48.520;9.046;2023-02-05T11:05:13;17.20;;;9.30;;
44704;SDS011;30431;48.520;9.046;2023-02-05T11:07:43;15.30;;;7.50;;
44704;SDS011;30431;48.520;9.046;2023-02-05T11:12:53;14.18;;;7.15;;
44704;SDS011;30431;48.520;9.046;2023-02-05T11:15:52;13.98;;;7.88;;
44704;SDS011;30431;48.520;9.046;2023-02-05T11:18:41;19.65;;;9.45;;
44704;SDS011;30431;48.520;9.046;2023-02-05T11:21:11;26.50;;;10.30;;
44704;SDS011;30431;48.520;9.046;2023-02-05T11:28:41;19.08;;;8.02;;
44704;SDS011;30431;48.520;9.046;2023-02-05T11:33:46;16.95;;;8.73;;
44704;SDS011;30431;48.520;9.046;2023-02-05T11:36:31;19.60;;;7.80;;
44704;SDS011;30431;48.520;9.046;2023-02-05T11:39:00;14.93;;;7.50;;
44704;SDS011;30431;48.520;9.046;2023-02-05T11:44:23;29.75;;;13.43;;
44704;SDS011;30431;48.520;9.046;2023-02-05T11:46:56;16.73;;;6.88;;
44704;SDS011;30431;48.520;9.046;2023-02-05T11:49:34;17.00;;;7.00;;
44704;SDS011;30431;48.520;9.046;2023-02-05T11:52:07;16.58;;;7.70;;
44704;SDS011;30431;48.520;9.046;2023-02-05T11:54:44;16.60;;;7.28;;
44704;SDS011;30431;48.520;9.046;2023-02-05T12:04:57;16.08;;;6.28;;
44704;SDS011;30431;48.520;9.046;2023-02-05T12:10:31;15.38;;;6.60;;
44704;SDS011;30431;48.520;9.046;2023-02-05T12:13:13;11.88;;;5.25;;
44704;SDS011;30431;48.520;9.046;2023-02-05T12:21:43;12.63;;;5.00;;
44704;SDS011;30431;48.520;9.046;2023-02-05T12:27:06;17.17;;;6.72;;
44704;SDS011;30431;48.520;9.046;2023-02-05T12:43:54;19.58;;;7.90;;
44704;SDS011;30431;48.520;9.046;2023-02-05T12:46:50;12.10;;;5.70;;
44704;SDS011;30431;48.520;9.046;2023-02-05T12:52:24;11.00;;;4.60;;
44704;SDS011;30431;48.520;9.046;2023-02-05T12:55:20;12.23;;;5.25;;
44704;SDS011;30431;48.520;9.046;2023-02-05T12:57:55;8.82;;;4.65;;
44704;SDS011;30431;48.520;9.046;2023-02-05T13:00:31;12.07;;;5.80;;
44704;SDS011;30431;48.520;9.046;2023-02-05T13:03:06;13.13;;;6.07;;
44704;SDS011;30431;48.520;9.046;2023-02-05T13:05:58;11.38;;;5.88;;
44704;SDS011;30431;48.520;9.046;2023-02-05T13:16:50;12.48;;;5.28;;
44704;SDS011;30431;48.520;9.046;2023-02-05T13:21:59;14.20;;;6.22;;
44704;SDS011;30431;48.520;9.046;2023-02-05T13:24:50;11.02;;;4.93;;
44704;SDS011;30431;48.520;9.046;2023-02-05T13:27:41;11.85;;;5.60;;
44704;SDS011;30431;48.520;9.046;2023-02-05T13:30:35;10.68;;;4.93;;
44704;SDS011;30431;48.520;9.046;2023-02-05T13:33:08;13.93;;;4.70;;
44704;SDS011;30431;48.520;9.046;2023-02-05T13:55:15;9.35;;;4.63;;
44704;SDS011;30431;48.520;9.046;2023-02-05T14:00:35;8.98;;;4.82;;
44704;SDS011;30431;48.520;9.046;2023-02-05T14:03:06;9.55;;;4.72;;
44704;SDS011;30431;48.520;9.046;2023-02-05T14:05:48;8.60;;;4.32;;
44704;SDS011;30431;48.520;9.046;2023-02-05T14:08:22;10.98;;;4.78;;
44704;SDS011;30431;48.520;9.046;2023-02-05T14:10:55;13.55;;;5.93;;
44704;SDS011;30431;48.520;9.046;2023-02-05T14:13:27;10.43;;;5.15;;
44704;SDS011;30431;48.520;9.046;2023-02-05T14:16:30;8.90;;;5.00;;
44704;SDS011;30431;48.520;9.046;2023-02-05T14:23:58;8.98;;;5.45;;
44704;SDS011;30431;48.520;9.046;2023-02-05T14:26:42;11.13;;;5.65;;
44704;SDS011;30431;48.520;9.046;2023-02-05T14:32:02;10.82;;;5.10;;
44704;SDS011;30431;48.520;9.046;2023-02-05T14:37:03;9.40;;;5.40;;
44704;SDS011;30431;48.520;9.046;2023-02-05T14:42:02;8.45;;;5.18;;
44704;SDS011;30431;48.520;9.046;2023-02-05T14:44:37;11.38;;;5.43;;
44704;SDS011;30431;48.520;9.046;2023-02-05T14:47:20;8.30;;;4.50;;
44704;SDS011;30431;48.520;9.046;2023-02-05T14:50:07;7.65;;;4.70;;
44704;SDS011;30431;48.520;9.046;2023-02-05T15:00:37;5.78;;;3.33;;
44704;SDS011;30431;48.520;9.046;2023-02-05T15:03:14;4.15;;;2.90;;
44704;SDS011;30431;48.520;9.046;2023-02-05T15:05:58;5.95;;;2.80;;
44704;SDS011;30431;48.520;9.046;2023-02-05T15:19:40;5.55;;;2.85;;
44704;SDS011;30431;48.520;9.046;2023-02-05T15:22:14;5.43;;;3.20;;
44704;SDS011;30431;48.520;9.046;2023-02-05T15:25:38;4.55;;;3.10;;
44704;SDS011;30431;48.520;9.046;2023-02-05T15:28:16;17.02;;;9.85;;
44704;SDS011;30431;48.520;9.046;2023-02-05T15:33:33;3.83;;;2.78;;
44704;SDS011;30431;48.520;9.046;2023-02-05T15:36:25;4.68;;;3.03;;
44704;SDS011;30431;48.520;9.046;2023-02-05T15:39:06;4.85;;;3.28;;
44704;SDS011;30431;48.520;9.046;2023-02-05T15:41:45;5.57;;;3.20;;
44704;SDS011;30431;48.520;9.046;2023-02-05T15:44:20;6.40;;;4.22;;
44704;SDS011;30431;48.520;9.046;2023-02-05T15:46:51;5.18;;;3.35;;
44704;SDS011;30431;48.520;9.046;2023-02-05T15:49:19;5.18;;;3.35;;
44704;SDS011;30431;48.520;9.046;2023-02-05T15:51:57;6.38;;;3.50;;
44704;SDS011;30431;48.520;9.046;2023-02-05T15:54:25;5.43;;;2.85;;
44704;SDS011;30431;48.520;9.046;2023-02-05T15:56:55;4.72;;;2.65;;
44704;SDS011;30431;48.520;9.046;2023-02-05T15:59:25;4.72;;;3.00;;
44704;SDS011;30431;48.520;9.046;2023-02-05T16:02:03;5.20;;;3.10;;
44704;SDS011;30431;48.520;9.046;2023-02-05T16:04:35;4.50;;;3.00;;
44704;SDS011;30431;48.520;9.046;2023-02-05T16:07:17;5.00;;;3.10;;
44704;SDS011;30431;48.520;9.046;2023-02-05T16:09:57;7.88;;;4.13;;
44704;SDS011;30431;48.520;9.046;2023-02-05T16:12:25;8.43;;;3.95;;
44704;SDS011;30431;48.520;9.046;2023-02-05T16:14:59;22.38;;;6.90;;
44704;SDS011;30431;48.520;9.046;2023-02-05T16:17:41;6.40;;;2.90;;
44704;SDS011;30431;48.520;9.046;2023-02-05T16:22:52;7.15;;;3.83;;
44704;SDS011;30431;48.520;9.046;2023-02-05T16:25:46;5.15;;;3.67;;
44704;SDS011;30431;48.520;9.046;2023-02-05T16:31:14;46.42;;;23.58;;
44704;SDS011;30431;48.520;9.046;2023-02-05T16:36:22;6.22;;;3.88;;
44704;SDS011;30431;48.520;9.046;2023-02-05T16:38:55;6.65;;;3.42;;
44704;SDS011;30431;48.520;9.046;2023-02-05T16:41:25;5.50;;;3.28;;
44704;SDS011;30431;48.520;9.046;2023-02-05T16:43:54;4.68;;;3.20;;
44704;SDS011;30431;48.520;9.046;2023-02-05T16:46:26;6.10;;;2.90;;
44704;SDS011;30431;48.520;9.046;2023-02-05T16:49:41;5.90;;;3.30;;
44704;SDS011;30431;48.520;9.046;2023-02-05T16:51:52;4.43;;;2.65;;
44704;SDS011;30431;48.520;9.046;2023-02-05T16:54:26;5.03;;;2.80;;
44704;SDS011;30431;48.520;9.046;2023-02-05T16:59:48;8.85;;;4.18;;
44704;SDS011;30431;48.520;9.046;2023-02-05T17:02:30;6.30;;;3.30;;
44704;SDS011;30431;48.520;9.046;2023-02-05T17:05:01;9.45;;;5.28;;
44704;SDS011;30431;48.520;9.046;2023-02-05T17:07:31;4.55;;;3.33;;
44704;SDS011;30431;48.520;9.046;2023-02-05T17:10:08;7.40;;;4.53;;
44704;SDS011;30431;48.520;9.046;2023-02-05T17:12:46;5.28;;;4.05;;
44704;SDS011;30431;48.520;9.046;2023-02-05T17:17:46;6.85;;;4.45;;
44704;SDS011;30431;48.520;9.046;2023-02-05T17:20:20;5.88;;;4.03;;
44704;SDS011;30431;48.520;9.046;2023-02-05T17:25:37;5.00;;;3.72;;
44704;SDS011;30431;48.520;9.046;2023-02-05T17:28:08;5.55;;;4.18;;
44704;SDS011;30431;48.520;9.046;2023-02-05T17:30:41;7.25;;;4.82;;
44704;SDS011;30431;48.520;9.046;2023-02-05T17:33:12;6.85;;;4.78;;
44704;SDS011;30431;48.520;9.046;2023-02-05T17:35:41;9.75;;;6.22;;
44704;SDS011;30431;48.520;9.046;2023-02-05T17:38:09;8.95;;;5.95;;
44704;SDS011;30431;48.520;9.046;2023-02-05T17:40:41;9.23;;;6.25;;
44704;SDS011;30431;48.520;9.046;2023-02-05T17:43:09;11.00;;;7.22;;
44704;SDS011;30431;48.520;9.046;2023-02-05T17:45:37;17.63;;;9.23;;
44704;SDS011;30431;48.520;9.046;2023-02-05T17:48:05;10.35;;;6.30;;
44704;SDS011;30431;48.520;9.046;2023-02-05T17:50:33;8.48;;;5.90;;
44704;SDS011;30431;48.520;9.046;2023-02-05T17:53:03;8.75;;;5.53;;
44704;SDS011;30431;48.520;9.046;2023-02-05T17:55:31;9.95;;;6.57;;
44704;SDS011;30431;48.520;9.046;2023-02-05T17:58:00;7.80;;;4.88;;
44704;SDS011;30431;48.520;9.046;2023-02-05T18:00:34;8.27;;;5.60;;
44704;SDS011;30431;48.520;9.046;2023-02-05T18:03:04;9.00;;;5.57;;
44704;SDS011;30431;48.520;9.046;2023-02-05T18:05:31;8.63;;;6.00;;
44704;SDS011;30431;48.520;9.046;2023-02-05T18:07:58;9.10;;;5.38;;
44704;SDS011;30431;48.520;9.046;2023-02-05T18:10:26;7.55;;;5.60;;
44704;SDS011;30431;48.520;9.046;2023-02-05T18:12:57;9.20;;;6.15;;
44704;SDS011;30431;48.520;9.046;2023-02-05T18:15:25;9.82;;;6.03;;
44704;SDS011;30431;48.520;9.046;2023-02-05T18:17:53;7.80;;;5.93;;
44704;SDS011;30431;48.520;9.046;2023-02-05T18:20:21;7.85;;;5.68;;
44704;SDS011;30431;48.520;9.046;2023-02-05T18:22:48;9.02;;;6.40;;
44704;SDS011;30431;48.520;9.046;2023-02-05T18:25:18;7.60;;;6.00;;
44704;SDS011;30431;48.520;9.046;2023-02-05T18:27:48;9.07;;;6.15;;
44704;SDS011;30431;48.520;9.046;2023-02-05T18:30:17;7.97;;;6.28;;
44704;SDS011;30431;48.520;9.046;2023-02-05T18:32:44;11.75;;;6.68;;
44704;SDS011;30431;48.520;9.046;2023-02-05T18:35:11;11.05;;;6.95;;
44704;SDS011;30431;48.520;9.046;2023-02-05T18:37:41;10.82;;;6.97;;
44704;SDS011;30431;48.520;9.046;2023-02-05T18:40:09;10.98;;;7.03;;